createdAt,value
2019-04-21T00:00:25.945Z,8.30
2019-04-21T00:03:00.704Z,8.10
2019-04-21T00:05:43.151Z,8.10
2019-04-21T00:08:27.823Z,8.10
2019-04-21T00:10:48.231Z,8.10
2019-04-21T00:13:12.510Z,8.10
2019-04-21T00:15:38.444Z,8.10
2019-04-21T00:18:11.051Z,7.90
2019-04-21T00:20:49.524Z,7.90
2019-04-21T00:23:31.208Z,7.80
2019-04-21T00:25:57.709Z,7.80
2019-04-21T00:28:42.834Z,7.60
2019-04-21T00:31:04.325Z,7.60
2019-04-21T00:33:24.394Z,7.50
2019-04-21T00:35:56.236Z,7.50
2019-04-21T00:38:57.433Z,7.40
2019-04-21T00:41:13.430Z,7.30
2019-04-21T00:43:38.911Z,7.20
2019-04-21T00:46:04.762Z,7.10
2019-04-21T00:48:44.096Z,7.10
2019-04-21T00:54:00.960Z,6.90
2019-04-21T00:56:21.522Z,6.80
2019-04-21T00:58:56.078Z,6.70
2019-04-21T01:01:27.972Z,6.70
2019-04-21T01:03:58.472Z,6.60
2019-04-21T01:06:32.565Z,6.60
2019-04-21T01:08:59.073Z,6.70
2019-04-21T01:11:33.018Z,6.70
2019-04-21T01:14:25.869Z,6.70
2019-04-21T01:16:33.211Z,6.60
2019-04-21T01:19:00.824Z,6.60
2019-04-21T01:21:14.421Z,6.50
2019-04-21T01:23:42.384Z,6.40
2019-04-21T01:26:26.351Z,6.30
2019-04-21T01:29:01.280Z,6.20
2019-04-21T01:31:30.256Z,6.20
2019-04-21T01:34:02.890Z,6.20
2019-04-21T01:36:34.987Z,6.20
2019-04-21T01:39:08.387Z,6.20
2019-04-21T01:41:38.921Z,6.20
2019-04-21T01:44:04.856Z,6.10
2019-04-21T01:46:34.542Z,6.10
2019-04-21T01:49:01.883Z,6.00
2019-04-21T01:51:47.950Z,5.90
2019-04-21T01:54:21.924Z,5.90
2019-04-21T01:57:04.347Z,6.00
2019-04-21T01:59:30.439Z,6.10
2019-04-21T02:02:11.015Z,6.10
2019-04-21T02:04:44.276Z,6.10
2019-04-21T02:07:10.895Z,6.10
2019-04-21T02:10:00.692Z,6.10
2019-04-21T02:12:14.781Z,6.10
2019-04-21T02:14:51.531Z,6.10
2019-04-21T02:17:14.844Z,6.00
2019-04-21T02:19:35.958Z,5.90
2019-04-21T02:22:11.186Z,5.70
2019-04-21T02:24:49.914Z,5.70
2019-04-21T02:27:22.235Z,5.70
2019-04-21T02:29:51.950Z,5.70
2019-04-21T02:32:26.185Z,5.60
2019-04-21T02:35:06.562Z,5.60
2019-04-21T02:37:38.385Z,5.50
2019-04-21T02:40:04.959Z,5.30
2019-04-21T02:42:46.617Z,5.30
2019-04-21T02:44:59.922Z,5.10
2019-04-21T02:50:11.304Z,4.90
2019-04-21T02:52:37.434Z,4.80
2019-04-21T02:55:02.395Z,4.80
2019-04-21T02:57:39.712Z,4.80
2019-04-21T03:03:00.898Z,4.80
2019-04-21T03:05:56.330Z,4.80
2019-04-21T03:08:15.076Z,4.70
2019-04-21T03:10:56.777Z,4.70
2019-04-21T03:15:59.853Z,4.70
2019-04-21T03:18:24.224Z,4.70
2019-04-21T03:21:05.175Z,4.80
2019-04-21T03:23:36.657Z,4.80
2019-04-21T03:26:00.799Z,4.70
2019-04-21T03:28:32.177Z,4.70
2019-04-21T03:31:25.119Z,4.70
2019-04-21T03:36:32.756Z,4.30
2019-04-21T03:41:01.114Z,3.90
2019-04-21T03:43:31.619Z,3.70
2019-04-21T03:46:01.854Z,3.70
2019-04-21T03:51:09.452Z,3.70
2019-04-21T03:56:02.772Z,3.80
2019-04-21T03:58:46.352Z,3.90
2019-04-21T04:01:08.009Z,4.00
2019-04-21T04:04:20.197Z,4.00
2019-04-21T04:06:57.093Z,4.10
2019-04-21T04:09:31.419Z,4.10
2019-04-21T04:11:53.125Z,4.00
2019-04-21T04:19:41.833Z,3.60
2019-04-21T04:26:57.826Z,3.40
2019-04-21T04:29:27.918Z,3.40
2019-04-21T04:32:14.648Z,3.50
2019-04-21T04:34:29.261Z,3.60
2019-04-21T04:37:05.371Z,3.70
2019-04-21T04:40:05.895Z,3.70
2019-04-21T04:42:45.676Z,3.80
2019-04-21T04:45:41.612Z,3.80
2019-04-21T04:48:06.013Z,3.70
2019-04-21T04:53:12.689Z,3.60
2019-04-21T04:55:41.015Z,3.60
2019-04-21T04:58:16.100Z,3.60
2019-04-21T05:03:18.916Z,3.70
2019-04-21T05:06:37.153Z,3.70
2019-04-21T05:11:37.739Z,3.80
2019-04-21T05:13:58.027Z,3.90
2019-04-21T05:16:24.324Z,3.90
2019-04-21T05:19:10.720Z,4.00
2019-04-21T05:21:30.690Z,4.00
2019-04-21T05:23:42.990Z,3.90
2019-04-21T05:26:06.362Z,3.80
2019-04-21T05:28:37.363Z,3.80
2019-04-21T05:32:33.905Z,3.80
2019-04-21T05:34:28.772Z,3.90
2019-04-21T05:37:06.085Z,4.00
2019-04-21T05:39:45.158Z,4.10
2019-04-21T05:42:05.097Z,4.30
2019-04-21T05:47:29.900Z,4.60
2019-04-21T05:49:56.037Z,4.90
2019-04-21T05:52:22.503Z,5.00
2019-04-21T05:57:31.846Z,5.30
2019-04-21T06:00:08.886Z,5.50
2019-04-21T06:05:15.792Z,5.80
2019-04-21T06:09:59.673Z,6.10
2019-04-21T06:12:38.210Z,6.20
2019-04-21T06:15:22.035Z,6.40
2019-04-21T06:17:37.512Z,6.60
2019-04-21T06:20:10.461Z,6.70
2019-04-21T06:22:33.045Z,6.90
2019-04-21T06:25:33.883Z,7.00
2019-04-21T06:27:52.679Z,7.20
2019-04-21T06:30:06.583Z,7.40
2019-04-21T06:32:46.665Z,7.60
2019-04-21T06:38:00.136Z,8.20
2019-04-21T06:43:10.969Z,9.00
2019-04-21T06:45:37.903Z,9.30
2019-04-21T06:48:06.205Z,9.70
2019-04-21T06:50:41.543Z,9.90
2019-04-21T06:53:13.536Z,10.20
2019-04-21T06:55:32.074Z,10.50
2019-04-21T06:58:08.352Z,10.80
2019-04-21T07:00:31.832Z,11.00
2019-04-21T07:03:14.096Z,11.30
2019-04-21T07:05:40.956Z,11.50
2019-04-21T07:08:22.581Z,11.70
2019-04-21T07:10:40.917Z,12.00
2019-04-21T07:13:08.254Z,12.30
2019-04-21T07:15:47.060Z,12.40
2019-04-21T07:18:13.691Z,12.70
2019-04-21T07:20:43.833Z,12.90
2019-04-21T07:23:16.068Z,13.10
2019-04-21T07:25:49.766Z,13.30
2019-04-21T07:28:14.085Z,13.50
2019-04-21T07:30:44.244Z,13.70
2019-04-21T07:33:44.710Z,13.90
2019-04-21T07:35:43.235Z,14.20
2019-04-21T07:38:16.769Z,14.40
2019-04-21T07:40:41.709Z,14.70
2019-04-21T07:43:12.163Z,14.90
2019-04-21T07:45:45.662Z,14.90
2019-04-21T07:48:24.943Z,15.10
2019-04-21T07:51:04.007Z,15.30
2019-04-21T07:53:51.526Z,15.50
2019-04-21T07:55:59.369Z,15.50
2019-04-21T07:58:56.353Z,15.70
2019-04-21T08:01:17.974Z,15.90
2019-04-21T08:03:46.578Z,16.10
2019-04-21T08:06:20.480Z,16.10
2019-04-21T08:08:49.024Z,16.20
2019-04-21T08:11:16.678Z,16.40
2019-04-21T08:14:04.580Z,16.70
2019-04-21T08:16:28.555Z,16.90
2019-04-21T08:18:54.439Z,17.00
2019-04-21T08:21:20.746Z,17.30
2019-04-21T08:23:54.830Z,17.60
2019-04-21T08:26:31.002Z,17.90
2019-04-21T08:29:01.124Z,18.10
2019-04-21T08:31:34.014Z,18.40
2019-04-21T08:34:03.225Z,18.60
2019-04-21T08:36:28.471Z,18.60
2019-04-21T08:39:01.402Z,18.70
2019-04-21T08:41:36.239Z,18.90
2019-04-21T08:44:05.187Z,19.00
2019-04-21T08:46:34.503Z,19.40
2019-04-21T08:49:08.027Z,19.60
2019-04-21T08:51:40.951Z,19.80
2019-04-21T08:54:09.450Z,20.10
2019-04-21T08:57:04.071Z,20.10
2019-04-21T08:59:47.128Z,20.40
2019-04-21T09:02:23.539Z,20.70
2019-04-21T09:04:52.759Z,20.90
2019-04-21T09:07:29.349Z,20.60
2019-04-21T09:09:54.398Z,20.50
2019-04-21T09:12:22.936Z,20.80
2019-04-21T09:14:55.477Z,21.00
2019-04-21T09:17:22.109Z,21.10
2019-04-21T09:20:01.818Z,21.10
2019-04-21T09:22:28.347Z,21.30
2019-04-21T09:24:55.973Z,21.50
2019-04-21T09:27:28.052Z,21.30
2019-04-21T09:29:47.916Z,21.10
2019-04-21T09:32:18.348Z,21.50
2019-04-21T09:34:45.517Z,21.60
2019-04-21T09:37:26.564Z,22.00
2019-04-21T09:39:48.837Z,22.40
2019-04-21T09:42:16.797Z,22.50
2019-04-21T09:44:47.726Z,22.80
2019-04-21T09:47:21.208Z,22.90
2019-04-21T09:49:47.458Z,23.00
2019-04-21T09:52:20.986Z,23.10
2019-04-21T09:54:56.628Z,23.00
2019-04-21T09:57:27.618Z,23.10
2019-04-21T09:59:57.584Z,23.10
2019-04-21T10:02:32.723Z,23.20
2019-04-21T10:04:51.111Z,23.10
2019-04-21T10:07:27.545Z,23.30
2019-04-21T10:09:52.278Z,23.20
2019-04-21T10:12:21.515Z,23.30
2019-04-21T10:14:51.764Z,23.40
2019-04-21T10:17:24.608Z,23.60
2019-04-21T10:19:55.081Z,23.70
2019-04-21T10:22:24.207Z,23.70
2019-04-21T10:24:54.245Z,24.20
2019-04-21T10:27:23.285Z,24.50
2019-04-21T10:29:52.347Z,24.00
2019-04-21T10:32:23.521Z,23.70
2019-04-21T10:34:52.857Z,23.80
2019-04-21T10:37:33.119Z,23.80
2019-04-21T10:39:53.727Z,23.80
2019-04-21T10:42:23.672Z,24.00
2019-04-21T10:44:52.771Z,23.90
2019-04-21T10:47:22.767Z,23.80
2019-04-21T10:49:52.820Z,24.20
2019-04-21T10:52:30.905Z,24.30
2019-04-21T10:55:20.696Z,24.10
2019-04-21T10:57:31.032Z,23.70
2019-04-21T11:00:01.444Z,23.90
2019-04-21T11:02:48.709Z,23.50
2019-04-21T11:05:18.810Z,23.80
2019-04-21T11:08:07.826Z,24.40
2019-04-21T11:10:25.669Z,24.50
2019-04-21T11:12:54.764Z,24.50
2019-04-21T11:15:25.209Z,24.50
2019-04-21T11:17:55.561Z,24.60
2019-04-21T11:20:24.789Z,24.70
2019-04-21T11:22:53.719Z,24.70
2019-04-21T11:25:24.147Z,24.70
2019-04-21T11:27:53.476Z,24.80
2019-04-21T11:30:23.355Z,24.50
2019-04-21T11:32:53.149Z,24.40
2019-04-21T11:35:23.291Z,24.50
2019-04-21T11:37:59.398Z,24.60
2019-04-21T11:40:25.335Z,24.40
2019-04-21T11:42:55.728Z,24.60
2019-04-21T11:45:32.793Z,24.60
2019-04-21T11:48:12.427Z,24.20
2019-04-21T11:50:41.500Z,24.10
2019-04-21T11:53:10.696Z,23.70
2019-04-21T11:55:43.601Z,23.90
2019-04-21T11:58:11.804Z,24.10
2019-04-21T12:00:42.105Z,24.20
2019-04-21T12:03:14.841Z,24.20
2019-04-21T12:05:41.779Z,24.10
2019-04-21T12:08:21.267Z,24.10
2019-04-21T12:10:41.847Z,23.90
2019-04-21T12:13:12.053Z,23.70
2019-04-21T12:15:41.309Z,24.00
2019-04-21T12:18:10.262Z,24.10
2019-04-21T12:20:39.685Z,24.00
2019-04-21T12:23:08.957Z,23.90
2019-04-21T12:25:40.971Z,24.10
2019-04-21T12:28:10.148Z,24.20
2019-04-21T12:30:39.873Z,24.20
2019-04-21T12:33:13.910Z,24.20
2019-04-21T12:35:43.926Z,24.30
2019-04-21T12:38:13.223Z,24.20
2019-04-21T12:40:42.423Z,23.90
2019-04-21T12:43:12.594Z,23.90
2019-04-21T12:45:41.973Z,24.20
2019-04-21T12:48:11.114Z,24.20
2019-04-21T12:50:41.546Z,24.10
2019-04-21T12:53:13.856Z,24.20
2019-04-21T12:55:44.842Z,24.00
2019-04-21T12:58:13.144Z,23.90
2019-04-21T13:00:42.908Z,24.00
2019-04-21T13:03:12.043Z,23.90
2019-04-21T13:05:41.063Z,23.90
2019-04-21T13:08:11.162Z,24.00
2019-04-21T13:10:40.567Z,24.10
2019-04-21T13:13:12.181Z,24.20
2019-04-21T13:15:41.476Z,24.20
2019-04-21T13:18:10.489Z,24.20
2019-04-21T13:20:40.143Z,24.10
2019-04-21T13:23:10.133Z,23.70
2019-04-21T13:25:39.321Z,23.70
2019-04-21T13:28:08.347Z,23.70
2019-04-21T13:30:38.098Z,23.70
2019-04-21T13:33:07.265Z,23.70
2019-04-21T13:35:37.161Z,23.90
2019-04-21T13:38:18.733Z,23.70
2019-04-21T13:49:15.279Z,23.50
2019-04-21T13:52:22.792Z,23.20
2019-04-21T13:55:07.574Z,23.50
2019-04-21T13:58:12.446Z,23.60
2019-04-21T14:00:59.869Z,23.80
2019-04-21T14:03:53.555Z,23.70
2019-04-21T14:07:04.277Z,23.70
2019-04-21T14:10:25.936Z,23.60
2019-04-21T14:13:42.497Z,23.60
2019-04-21T14:16:26.625Z,23.50
2019-04-21T14:18:57.182Z,23.50
2019-04-21T14:21:27.225Z,23.40
2019-04-21T14:23:57.753Z,23.30
2019-04-21T14:26:27.277Z,23.20
2019-04-21T14:28:56.830Z,23.30
2019-04-21T14:31:26.342Z,23.50
2019-04-21T14:33:56.306Z,23.50
2019-04-21T14:36:26.548Z,23.50
2019-04-21T14:38:56.612Z,23.60
2019-04-21T14:41:26.337Z,23.70
2019-04-21T14:43:55.582Z,23.50
2019-04-21T14:46:35.323Z,23.40
2019-04-21T14:49:27.052Z,23.30
2019-04-21T14:52:05.093Z,23.20
2019-04-21T14:55:00.531Z,23.50
2019-04-21T14:57:29.916Z,23.30
2019-04-21T14:59:59.098Z,23.40
2019-04-21T15:02:29.777Z,23.50
2019-04-21T15:04:59.842Z,23.20
2019-04-21T15:07:29.206Z,23.20
2019-04-21T15:10:05.774Z,23.00
2019-04-21T15:12:29.955Z,23.00
2019-04-21T15:15:00.201Z,23.00
2019-04-21T15:17:29.514Z,23.00
2019-04-21T15:20:04.587Z,23.00
2019-04-21T15:22:30.460Z,23.10
2019-04-21T15:25:00.641Z,23.10
2019-04-21T15:27:30.711Z,22.90
2019-04-21T15:30:00.592Z,23.00
2019-04-21T15:32:30.621Z,22.90
2019-04-21T15:35:00.370Z,22.80
2019-04-21T15:37:29.567Z,22.70
2019-04-21T15:40:12.259Z,22.70
2019-04-21T15:42:30.643Z,22.50
2019-04-21T15:45:00.921Z,22.40
2019-04-21T15:47:31.710Z,22.40
2019-04-21T15:50:07.373Z,22.30
2019-04-21T15:52:32.161Z,22.40
2019-04-21T15:55:06.373Z,22.30
2019-04-21T15:57:47.010Z,22.20
2019-04-21T16:00:28.746Z,22.10
2019-04-21T16:02:58.553Z,22.00
2019-04-21T16:05:28.552Z,22.00
2019-04-21T16:07:58.184Z,22.00
2019-04-21T16:10:40.777Z,21.90
2019-04-21T16:12:58.538Z,21.90
2019-04-21T16:15:28.268Z,21.90
2019-04-21T16:17:57.598Z,21.90
2019-04-21T16:20:27.973Z,21.90
2019-04-21T16:22:57.273Z,21.80
2019-04-21T16:25:26.787Z,21.70
2019-04-21T16:27:57.264Z,21.70
2019-04-21T16:30:28.692Z,21.70
2019-04-21T16:32:57.942Z,21.70
2019-04-21T16:35:27.250Z,21.60
2019-04-21T16:37:58.737Z,21.60
2019-04-21T16:40:31.065Z,21.50
2019-04-21T16:42:58.486Z,21.50
2019-04-21T16:45:28.619Z,21.50
2019-04-21T16:47:59.100Z,21.30
2019-04-21T16:50:29.806Z,21.20
2019-04-21T16:53:03.904Z,21.10
2019-04-21T16:55:44.860Z,21.10
2019-04-21T16:58:36.719Z,21.00
2019-04-21T17:01:14.288Z,21.00
2019-04-21T17:03:40.164Z,21.00
2019-04-21T17:06:09.468Z,20.90
2019-04-21T17:08:38.877Z,20.90
2019-04-21T17:11:14.004Z,20.70
2019-04-21T17:13:39.833Z,20.60
2019-04-21T17:16:40.613Z,20.60
2019-04-21T17:18:56.663Z,20.50
2019-04-21T17:21:15.221Z,20.30
2019-04-21T17:23:46.298Z,20.30
2019-04-21T17:26:15.518Z,20.10
2019-04-21T17:28:45.040Z,20.10
2019-04-21T17:31:14.301Z,20.00
2019-04-21T17:33:45.238Z,19.90
2019-04-21T17:36:16.793Z,19.80
2019-04-21T17:38:46.261Z,19.70
2019-04-21T17:41:27.038Z,19.60
2019-04-21T17:43:47.857Z,19.50
2019-04-21T17:46:24.437Z,19.40
2019-04-21T17:48:49.229Z,19.30
2019-04-21T17:51:31.989Z,19.20
2019-04-21T17:54:16.483Z,19.00
2019-04-21T17:57:20.290Z,18.90
2019-04-21T17:59:41.109Z,18.60
2019-04-21T18:02:00.805Z,18.40
2019-04-21T18:04:31.209Z,18.30
2019-04-21T18:07:15.129Z,18.20
2019-04-21T18:09:59.087Z,18.10
2019-04-21T18:12:22.599Z,17.90
2019-04-21T18:14:38.026Z,17.80
2019-04-21T18:17:08.705Z,17.70
2019-04-21T18:19:43.140Z,17.60
2019-04-21T18:22:37.119Z,17.60
2019-04-21T18:25:06.697Z,17.40
2019-04-21T18:27:34.515Z,17.30
2019-04-21T18:30:15.944Z,17.20
2019-04-21T18:33:11.958Z,17.20
2019-04-21T18:35:56.794Z,17.10
2019-04-21T18:39:16.775Z,17.00
2019-04-21T18:41:30.202Z,16.90
2019-04-21T18:44:38.914Z,16.80
2019-04-21T18:47:07.201Z,16.70
2019-04-21T18:49:21.456Z,16.60
2019-04-21T18:52:05.921Z,16.50
2019-04-21T18:54:47.084Z,16.40
2019-04-21T18:57:10.821Z,16.30
2019-04-21T18:59:36.188Z,16.20
2019-04-21T19:02:06.858Z,16.10
2019-04-21T19:04:37.134Z,16.10
2019-04-21T19:07:18.041Z,16.00
2019-04-21T19:10:11.329Z,15.90
2019-04-21T19:12:31.920Z,15.80
2019-04-21T19:14:55.045Z,15.70
2019-04-21T19:18:05.108Z,15.70
2019-04-21T19:20:07.493Z,15.60
2019-04-21T19:22:32.869Z,15.50
2019-04-21T19:25:05.097Z,15.40
2019-04-21T19:27:31.137Z,15.30
2019-04-21T19:32:33.600Z,15.10
2019-04-21T19:34:52.577Z,15.00
2019-04-21T19:37:22.954Z,14.90
2019-04-21T19:40:03.278Z,14.80
2019-04-21T19:42:32.030Z,14.80
2019-04-21T19:45:06.144Z,14.80
2019-04-21T19:47:44.415Z,14.70
2019-04-21T19:50:12.006Z,14.60
2019-04-21T19:52:34.040Z,14.60
2019-04-21T19:54:56.191Z,14.50
2019-04-21T19:57:25.246Z,14.50
2019-04-21T19:59:58.537Z,14.40
2019-04-21T20:02:26.661Z,14.30
2019-04-21T20:05:03.117Z,14.20
2019-04-21T20:07:45.545Z,14.30
2019-04-21T20:10:23.739Z,14.20
2019-04-21T20:12:47.454Z,14.20
2019-04-21T20:15:28.747Z,14.20
2019-04-21T20:17:48.318Z,14.10
2019-04-21T20:20:00.807Z,14.10
2019-04-21T20:22:36.867Z,14.10
2019-04-21T20:28:58.829Z,14.00
2019-04-21T20:31:31.570Z,13.90
2019-04-21T20:34:07.795Z,13.80
2019-04-21T20:36:41.573Z,13.80
2019-04-21T20:38:57.102Z,13.80
2019-04-21T20:41:32.600Z,13.70
2019-04-21T20:44:12.051Z,13.70
2019-04-21T20:46:40.299Z,13.70
2019-04-21T20:49:04.647Z,13.60
2019-04-21T20:51:37.665Z,13.50
2019-04-21T20:54:08.680Z,13.50
2019-04-21T20:56:45.142Z,13.40
2019-04-21T20:59:11.951Z,13.30
2019-04-21T21:01:43.210Z,13.20
2019-04-21T21:04:06.347Z,13.10
2019-04-21T21:06:42.314Z,13.00
2019-04-21T21:09:09.946Z,13.00
2019-04-21T21:12:08.075Z,12.90
2019-04-21T21:14:16.098Z,12.90
2019-04-21T21:16:51.845Z,12.80
2019-04-21T21:19:38.092Z,12.80
2019-04-21T21:21:45.599Z,12.70
2019-04-21T21:24:22.275Z,12.60
2019-04-21T21:26:48.622Z,12.60
2019-04-21T21:29:21.333Z,12.60
2019-04-21T21:31:59.966Z,12.50
2019-04-21T21:34:27.870Z,12.40
2019-04-21T21:36:57.648Z,12.50
2019-04-21T21:39:23.398Z,12.40
2019-04-21T21:41:46.367Z,12.50
2019-04-21T21:44:14.429Z,12.40
2019-04-21T21:46:49.941Z,12.40
2019-04-21T21:49:29.424Z,12.40
2019-04-21T21:51:55.957Z,12.40
2019-04-21T21:54:11.727Z,12.40
2019-04-21T21:56:40.869Z,12.40
2019-04-21T21:59:17.954Z,12.40
2019-04-21T22:01:45.494Z,12.40
2019-04-21T22:04:19.285Z,12.30
2019-04-21T22:06:50.449Z,12.30
2019-04-21T22:09:14.470Z,12.30
2019-04-21T22:11:44.371Z,12.20
2019-04-21T22:14:22.897Z,12.20
2019-04-21T22:16:57.506Z,12.10
2019-04-21T22:19:32.589Z,12.00
2019-04-21T22:22:06.650Z,11.90
2019-04-21T22:24:35.109Z,11.80
2019-04-21T22:26:47.316Z,11.80
2019-04-21T22:29:16.263Z,11.80
2019-04-21T22:31:46.887Z,11.70
2019-04-21T22:34:17.746Z,11.60
2019-04-21T22:36:56.107Z,11.60
2019-04-21T22:39:36.071Z,11.50
2019-04-21T22:42:00.467Z,11.50
2019-04-21T22:44:18.982Z,11.60
2019-04-21T22:46:58.409Z,11.80
2019-04-21T22:49:20.093Z,11.80
2019-04-21T22:51:51.851Z,11.90
2019-04-21T22:54:26.817Z,11.90
2019-04-21T22:56:58.540Z,11.90
2019-04-21T22:59:23.992Z,11.90
2019-04-21T23:01:52.613Z,11.80
2019-04-21T23:04:26.607Z,11.80
2019-04-21T23:06:59.261Z,11.70
2019-04-21T23:09:24.685Z,11.70
2019-04-21T23:11:56.590Z,11.50
2019-04-21T23:14:25.771Z,11.50
2019-04-21T23:17:15.346Z,11.40
2019-04-21T23:19:39.906Z,11.40
2019-04-21T23:22:14.593Z,11.30
2019-04-21T23:24:48.094Z,11.30
2019-04-21T23:27:11.675Z,11.30
2019-04-21T23:29:52.683Z,11.20
2019-04-21T23:32:13.244Z,11.10
2019-04-21T23:34:36.171Z,11.10
2019-04-21T23:37:06.710Z,11.00
2019-04-21T23:39:32.807Z,10.90
2019-04-21T23:42:01.324Z,10.90
2019-04-21T23:44:33.915Z,10.90
2019-04-21T23:47:06.471Z,10.80
2019-04-21T23:49:43.100Z,10.80
2019-04-21T23:52:08.501Z,10.80
2019-04-21T23:54:33.891Z,10.80
2019-04-21T23:57:11.072Z,10.70
2019-04-21T23:59:40.877Z,10.70
